Time;durP1;ratioP1;P1;durP2;ratioP2;P2;SDS_P1;SDS_P2;PMS_P1;PMS_P2;Temp;Humidity;BMP_temperature;BMP_pressure;BME280_temperature;BME280_humidity;BME280_pressure;Samples;Min_cycle;Max_cycle;Signal;HPM_P1;HPM_P2
2023/11/08 00:00:02;;;;;;;4.80;4.40;;;8.40;99.90;;;;;;5087141;28;20735;-46
2023/11/08 00:02:39;;;;;;;4.67;4.00;;;8.40;99.90;;;;;;5097422;28;20200;-46
2023/11/08 00:05:06;;;;;;;6.50;3.43;;;8.40;99.90;;;;;;5105963;28;20217;-46
2023/11/08 00:07:33;;;;;;;6.30;3.87;;;8.40;99.90;;;;;;5071463;28;20221;-52
2023/11/08 00:10:09;;;;;;;8.33;4.63;;;8.40;99.90;;;;;;5105706;27;20190;-48
2023/11/08 00:12:36;;;;;;;5.80;4.00;;;8.40;99.90;;;;;;5101884;27;20689;-52
2023/11/08 00:15:07;;;;;;;6.40;4.10;;;8.40;99.90;;;;;;5096539;28;20224;-49
2023/11/08 00:17:34;;;;;;;4.20;3.80;;;8.40;99.90;;;;;;5092511;28;20280;-51
2023/11/08 00:20:02;;;;;;;7.17;4.77;;;8.40;99.90;;;;;;5102686;28;20197;-51
2023/11/08 00:22:29;;;;;;;6.07;4.40;;;8.40;99.90;;;;;;5072601;27;20292;-49
2023/11/08 00:24:55;;;;;;;5.60;4.10;;;8.40;99.90;;;;;;5103843;28;20213;-52
2023/11/08 00:27:24;;;;;;;6.77;4.80;;;8.40;99.90;;;;;;5091890;28;20692;-49
2023/11/08 00:29:50;;;;;;;7.37;4.10;;;8.40;99.90;;;;;;5103188;28;20250;-52
2023/11/08 00:32:21;;;;;;;7.70;4.70;;;8.40;99.90;;;;;;5087211;27;20346;-52
2023/11/08 00:34:49;;;;;;;5.60;4.30;;;8.40;99.90;;;;;;5101531;28;20225;-48
2023/11/08 00:37:16;;;;;;;8.60;5.20;;;8.40;99.90;;;;;;5074541;27;20282;-47
2023/11/08 00:39:44;;;;;;;5.30;4.83;;;8.40;99.90;;;;;;5099936;28;20202;-49
2023/11/08 00:42:10;;;;;;;7.53;4.80;;;8.50;99.90;;;;;;5097237;28;20205;-51
2023/11/08 00:44:39;;;;;;;7.60;5.80;;;8.40;99.90;;;;;;5101574;28;20243;-49
2023/11/08 00:47:07;;;;;;;6.00;5.40;;;8.40;99.90;;;;;;5094834;28;20257;-49
2023/11/08 00:49:34;;;;;;;8.80;5.73;;;8.40;99.90;;;;;;5092430;28;20270;-50
2023/11/08 00:52:01;;;;;;;6.03;5.43;;;8.50;99.90;;;;;;5070335;27;20219;-48
2023/11/08 00:54:27;;;;;;;7.03;6.33;;;8.50;99.90;;;;;;5102238;27;20213;-54
2023/11/08 00:57:00;;;;;;;8.77;5.50;;;8.50;99.90;;;;;;5095423;27;20205;-54
2023/11/08 00:59:27;;;;;;;6.83;6.23;;;8.50;99.90;;;;;;5100244;28;20205;-48
2023/11/08 01:01:55;;;;;;;9.43;7.13;;;8.40;99.90;;;;;;5092337;27;20442;-49
2023/11/08 01:04:22;;;;;;;9.57;6.80;;;8.40;99.90;;;;;;5092136;28;20202;-49
2023/11/08 01:06:49;;;;;;;8.13;6.93;;;8.40;99.90;;;;;;5102586;28;20220;-48
2023/11/08 01:09:20;;;;;;;9.97;7.20;;;8.40;99.90;;;;;;5062973;28;20196;-45
2023/11/08 01:11:48;;;;;;;7.77;6.67;;;8.40;99.90;;;;;;5104508;28;20610;-46
2023/11/08 01:14:15;;;;;;;8.47;7.03;;;8.40;99.90;;;;;;5091964;28;20308;-49
2023/11/08 01:16:42;;;;;;;8.40;6.53;;;8.40;99.90;;;;;;5094046;28;20225;-46
2023/11/08 01:19:10;;;;;;;7.50;6.80;;;8.40;99.90;;;;;;5092877;28;20189;-54
2023/11/08 01:21:37;;;;;;;9.73;7.27;;;8.40;99.90;;;;;;5102618;28;20197;-50
2023/11/08 01:24:05;;;;;;;9.20;7.47;;;8.40;99.90;;;;;;5068898;28;20197;-51
2023/11/08 01:26:32;;;;;;;8.67;7.20;;;8.40;99.90;;;;;;5102875;28;20766;-44
2023/11/08 01:28:59;;;;;;;7.93;6.23;;;8.40;99.90;;;;;;5093365;28;20210;-52
2023/11/08 01:31:27;;;;;;;10.13;7.47;;;8.40;99.90;;;;;;5102153;28;20276;-44
2023/11/08 01:33:55;;;;;;;7.17;6.30;;;8.40;99.90;;;;;;5090829;28;20248;-53
2023/11/08 01:36:24;;;;;;;10.57;7.03;;;8.40;99.90;;;;;;5093467;28;20657;-44
2023/11/08 01:38:51;;;;;;;11.03;7.73;;;8.50;99.90;;;;;;5102266;28;20258;-47
2023/11/08 01:41:19;;;;;;;9.97;8.10;;;8.40;99.90;;;;;;5072623;28;20286;-44
2023/11/08 01:43:46;;;;;;;13.17;8.80;;;8.40;99.90;;;;;;5100645;27;20204;-45
2023/11/08 01:46:20;;;;;;;9.00;8.10;;;8.40;99.90;;;;;;5103112;27;20217;-44
2023/11/08 01:48:47;;;;;;;9.07;7.97;;;8.40;99.90;;;;;;5096263;27;20205;-49
2023/11/08 01:51:14;;;;;;;9.30;8.30;;;8.40;99.90;;;;;;5090974;28;20812;-47
2023/11/08 01:53:43;;;;;;;9.17;8.23;;;8.40;99.90;;;;;;5103837;28;20896;-44
2023/11/08 01:56:11;;;;;;;12.07;8.37;;;8.40;99.90;;;;;;5068198;28;20301;-50
2023/11/08 01:58:39;;;;;;;9.33;8.13;;;8.30;99.90;;;;;;5099734;28;20265;-48
2023/11/08 02:01:08;;;;;;;13.57;9.07;;;8.40;99.90;;;;;;5088705;28;20251;-51
2023/11/08 02:03:36;;;;;;;9.73;8.80;;;8.40;99.90;;;;;;5101636;28;20189;-44
2023/11/08 02:06:04;;;;;;;10.47;9.17;;;8.40;99.90;;;;;;5081550;28;20320;-52
2023/11/08 02:08:31;;;;;;;9.13;8.00;;;8.40;99.90;;;;;;5102304;27;20641;-51
2023/11/08 02:11:00;;;;;;;12.10;8.40;;;8.40;99.90;;;;;;5072540;28;20299;-52
2023/11/08 02:13:27;;;;;;;11.07;9.43;;;8.40;99.90;;;;;;5100136;28;20205;-48
2023/11/08 02:15:55;;;;;;;11.17;8.47;;;8.40;99.90;;;;;;5093725;28;20715;-51
2023/11/08 02:18:21;;;;;;;9.80;8.07;;;8.40;99.90;;;;;;5099936;28;20193;-46
2023/11/08 02:20:49;;;;;;;10.00;8.33;;;8.40;99.90;;;;;;5084874;28;20224;-45
2023/11/08 02:23:16;;;;;;;10.50;8.90;;;8.40;99.90;;;;;;5087451;28;20326;-50
2023/11/08 02:25:45;;;;;;;8.87;7.93;;;8.40;99.90;;;;;;5099379;28;20730;-49
2023/11/08 02:28:12;;;;;;;10.23;7.90;;;8.50;99.90;;;;;;5066974;28;20201;-47
2023/11/08 02:30:39;;;;;;;9.17;7.37;;;8.40;99.90;;;;;;5095112;27;20838;-45
2023/11/08 02:33:08;;;;;;;9.90;7.23;;;8.50;99.90;;;;;;5097907;28;20198;-49
2023/11/08 02:35:37;;;;;;;7.77;7.07;;;8.50;99.90;;;;;;5093605;28;20221;-48
2023/11/08 02:38:06;;;;;;;8.33;7.00;;;8.50;99.90;;;;;;5089650;28;20232;-53
2023/11/08 02:40:33;;;;;;;9.00;8.13;;;8.50;99.90;;;;;;5103867;27;20204;-45
2023/11/08 02:43:01;;;;;;;8.23;7.43;;;8.50;99.90;;;;;;5067611;28;20205;-52
2023/11/08 02:45:28;;;;;;;10.07;7.07;;;8.50;99.90;;;;;;5101570;28;20201;-47
2023/11/08 02:47:56;;;;;;;7.53;6.77;;;8.50;99.90;;;;;;5094081;28;20262;-50
2023/11/08 02:50:23;;;;;;;7.07;6.37;;;8.50;99.90;;;;;;5094419;27;20193;-54
2023/11/08 02:52:50;;;;;;;7.17;6.57;;;8.60;99.90;;;;;;5083839;28;20212;-46
2023/11/08 02:55:17;;;;;;;8.13;6.97;;;8.60;99.90;;;;;;5101539;28;20274;-51
2023/11/08 02:57:44;;;;;;;7.07;6.37;;;8.60;99.90;;;;;;5070925;27;20200;-47
2023/11/08 03:00:14;;;;;;;7.47;5.90;;;8.60;99.90;;;;;;5102285;28;20211;-51
2023/11/08 03:02:42;;;;;;;8.07;6.60;;;8.60;99.90;;;;;;5100870;28;20301;-46
2023/11/08 03:05:09;;;;;;;6.37;5.77;;;8.60;99.90;;;;;;5101038;28;20296;-44
2023/11/08 03:07:36;;;;;;;7.10;6.50;;;8.60;99.90;;;;;;5080120;28;20197;-52
2023/11/08 03:10:04;;;;;;;7.53;6.57;;;8.60;99.90;;;;;;5102383;28;20197;-45
2023/11/08 03:12:31;;;;;;;7.03;6.37;;;8.60;99.90;;;;;;5065310;28;20286;-53
2023/11/08 03:14:58;;;;;;;7.27;6.57;;;8.60;99.90;;;;;;5100974;28;20216;-44
2023/11/08 03:17:26;;;;;;;6.40;5.90;;;8.60;99.90;;;;;;5101193;28;20200;-50
2023/11/08 03:19:53;;;;;;;7.80;7.03;;;8.60;99.90;;;;;;5100072;28;20197;-44
2023/11/08 03:22:20;;;;;;;7.87;6.77;;;8.60;99.90;;;;;;5090272;28;20213;-51
2023/11/08 03:24:47;;;;;;;8.77;7.60;;;8.60;99.90;;;;;;5098467;28;20228;-44
2023/11/08 03:27:14;;;;;;;6.47;5.97;;;8.60;99.90;;;;;;5090777;28;20842;-45
2023/11/08 03:29:41;;;;;;;7.30;6.60;;;8.60;99.90;;;;;;5067979;28;20201;-45
2023/11/08 03:32:08;;;;;;;7.53;6.50;;;8.60;99.90;;;;;;5092642;28;20666;-47
2023/11/08 03:34:38;;;;;;;7.00;6.30;;;8.60;99.90;;;;;;5100311;28;20215;-52
2023/11/08 03:37:05;;;;;;;7.20;6.50;;;8.60;99.90;;;;;;5102570;28;20193;-49
2023/11/08 03:39:31;;;;;;;6.53;5.93;;;8.60;99.90;;;;;;5082674;28;20273;-50
2023/11/08 03:41:58;;;;;;;7.07;6.10;;;8.60;99.90;;;;;;5101181;28;20213;-44
2023/11/08 03:44:25;;;;;;;7.20;6.50;;;8.60;99.90;;;;;;5069675;28;20209;-51
2023/11/08 03:46:52;;;;;;;6.60;6.00;;;8.60;99.90;;;;;;5091981;28;20380;-47
2023/11/08 03:49:19;;;;;;;5.70;5.30;;;8.60;99.90;;;;;;5106529;28;20202;-51
2023/11/08 03:51:47;;;;;;;6.97;6.03;;;8.60;99.90;;;;;;5099053;28;20751;-48
2023/11/08 03:54:14;;;;;;;6.90;5.73;;;8.60;99.90;;;;;;5098052;28;20213;-46
2023/11/08 03:56:41;;;;;;;8.70;6.00;;;8.60;99.90;;;;;;5089645;28;20932;-48
2023/11/08 03:59:07;;;;;;;7.37;6.43;;;8.60;99.90;;;;;;5101927;28;20262;-50
2023/11/08 04:01:34;;;;;;;6.63;6.03;;;8.70;99.90;;;;;;5055313;28;20258;-52
2023/11/08 04:04:01;;;;;;;7.00;6.07;;;8.60;99.90;;;;;;5097489;28;20189;-53
2023/11/08 04:06:28;;;;;;;5.40;4.90;;;8.70;99.90;;;;;;5099539;28;20213;-47
2023/11/08 04:08:57;;;;;;;6.20;5.13;;;8.70;99.90;;;;;;5091676;28;20182;-47
2023/11/08 04:11:24;;;;;;;6.93;6.20;;;8.70;99.90;;;;;;5090124;28;20204;-48
2023/11/08 04:13:51;;;;;;;5.47;4.97;;;8.70;99.90;;;;;;5101417;28;20284;-46
2023/11/08 04:16:18;;;;;;;6.83;5.90;;;8.70;99.90;;;;;;5064466;28;20221;-47
2023/11/08 04:18:45;;;;;;;8.07;5.27;;;8.70;99.90;;;;;;5090526;28;20272;-51
2023/11/08 04:21:12;;;;;;;9.00;5.37;;;8.70;99.90;;;;;;5101808;28;20209;-49
2023/11/08 04:23:38;;;;;;;5.90;5.33;;;8.70;99.90;;;;;;5089058;28;23880;-54
2023/11/08 04:26:07;;;;;;;5.97;5.13;;;8.70;99.90;;;;;;5096528;28;20213;-48
2023/11/08 04:28:34;;;;;;;7.33;5.50;;;8.70;99.90;;;;;;5103063;27;20218;-46
2023/11/08 04:31:02;;;;;;;6.63;5.80;;;8.70;99.90;;;;;;5071649;28;20221;-53
2023/11/08 04:33:28;;;;;;;5.70;5.10;;;8.70;99.90;;;;;;5089364;28;20733;-47
2023/11/08 04:35:55;;;;;;;6.00;5.40;;;8.70;99.90;;;;;;5099981;27;20216;-52
2023/11/08 04:38:22;;;;;;;7.20;5.13;;;8.70;99.90;;;;;;5101865;28;20205;-48
2023/11/08 04:40:49;;;;;;;8.33;5.33;;;8.70;99.90;;;;;;5087071;28;20204;-51
2023/11/08 04:43:17;;;;;;;5.70;5.20;;;8.70;99.90;;;;;;5081094;28;20323;-50
2023/11/08 04:45:44;;;;;;;6.03;5.43;;;8.70;99.90;;;;;;5101463;28;20213;-50
2023/11/08 04:48:11;;;;;;;5.97;5.37;;;8.70;99.90;;;;;;5060008;28;20445;-46
2023/11/08 04:50:39;;;;;;;6.10;5.60;;;8.70;99.90;;;;;;5095607;28;20254;-47
2023/11/08 04:53:06;;;;;;;6.07;5.47;;;8.70;99.90;;;;;;5100476;27;20326;-47
2023/11/08 04:55:33;;;;;;;5.40;4.90;;;8.70;99.90;;;;;;5092103;28;20232;-50
2023/11/08 04:58:00;;;;;;;5.77;5.23;;;8.70;99.90;;;;;;5085498;28;20197;-45
2023/11/08 05:00:28;;;;;;;9.20;5.80;;;8.70;99.90;;;;;;5104329;28;20269;-48
2023/11/08 05:02:55;;;;;;;6.67;5.40;;;8.70;99.90;;;;;;5066493;28;20205;-47
2023/11/08 05:05:21;;;;;;;6.17;5.60;;;8.70;99.90;;;;;;5089841;28;20217;-50
2023/11/08 05:07:48;;;;;;;6.70;5.53;;;8.70;99.90;;;;;;5094407;28;20225;-46
2023/11/08 05:10:15;;;;;;;6.00;5.40;;;8.70;99.90;;;;;;5100772;28;20190;-50
2023/11/08 05:12:42;;;;;;;6.53;5.80;;;8.70;99.90;;;;;;5084789;28;20198;-47
2023/11/08 05:15:09;;;;;;;7.43;5.40;;;8.70;99.90;;;;;;5100561;28;20213;-48
2023/11/08 05:17:39;;;;;;;4.87;4.47;;;8.70;99.90;;;;;;5102129;28;20213;-46
2023/11/08 05:20:07;;;;;;;6.50;5.90;;;8.70;99.90;;;;;;5057672;27;20201;-48
2023/11/08 05:22:34;;;;;;;7.00;6.30;;;8.70;99.90;;;;;;5102679;28;20261;-46
2023/11/08 05:25:01;;;;;;;8.53;5.83;;;8.70;99.90;;;;;;5101351;28;20687;-48
2023/11/08 05:27:28;;;;;;;6.53;5.77;;;8.70;99.90;;;;;;5095367;28;20251;-48
2023/11/08 05:29:55;;;;;;;7.60;6.03;;;8.70;99.90;;;;;;5087898;28;20250;-45
2023/11/08 05:32:24;;;;;;;7.00;6.30;;;8.70;99.90;;;;;;5098360;28;20772;-47
2023/11/08 05:34:52;;;;;;;7.93;7.13;;;8.70;99.90;;;;;;5072271;27;20213;-46
2023/11/08 05:37:19;;;;;;;7.00;6.40;;;8.70;99.90;;;;;;5098314;28;20194;-45
2023/11/08 05:39:47;;;;;;;7.73;6.93;;;8.80;99.90;;;;;;5094842;27;20204;-46
2023/11/08 05:42:15;;;;;;;9.00;7.73;;;8.80;99.90;;;;;;5090328;28;21027;-48
2023/11/08 05:44:43;;;;;;;7.83;7.03;;;8.80;99.90;;;;;;5091545;28;20198;-46
2023/11/08 05:47:10;;;;;;;8.43;7.37;;;8.80;99.90;;;;;;5094263;28;20275;-49
2023/11/08 05:49:36;;;;;;;8.87;7.47;;;8.80;99.90;;;;;;5099502;28;20235;-46
2023/11/08 05:52:05;;;;;;;9.63;7.43;;;8.80;99.90;;;;;;5063688;28;20202;-48
2023/11/08 05:54:32;;;;;;;8.10;7.30;;;8.80;99.90;;;;;;5096181;28;20577;-50
2023/11/08 05:56:58;;;;;;;9.50;8.53;;;8.70;99.90;;;;;;5089506;28;20198;-46
2023/11/08 05:59:25;;;;;;;11.43;8.60;;;8.80;99.90;;;;;;5089529;28;20887;-47
2023/11/08 06:01:52;;;;;;;8.60;7.90;;;8.80;99.90;;;;;;5098027;27;20198;-45
2023/11/08 06:04:19;;;;;;;8.00;7.30;;;8.80;99.90;;;;;;5095267;28;20198;-46
2023/11/08 06:06:46;;;;;;;9.67;8.10;;;8.80;99.90;;;;;;5054305;28;20296;-52
2023/11/08 06:09:15;;;;;;;8.93;7.70;;;8.80;99.90;;;;;;5103422;27;20201;-44
2023/11/08 06:11:42;;;;;;;9.03;8.13;;;8.80;99.90;;;;;;5094810;28;20186;-44
2023/11/08 06:14:10;;;;;;;9.23;8.13;;;8.80;99.90;;;;;;5078263;28;20210;-49
2023/11/08 06:16:40;;;;;;;9.43;8.43;;;8.80;99.90;;;;;;5091090;28;20206;-45
2023/11/08 06:19:07;;;;;;;9.70;8.67;;;8.80;99.90;;;;;;5095518;28;20213;-49
2023/11/08 06:21:34;;;;;;;9.73;8.43;;;8.80;99.90;;;;;;5061558;27;20736;-45
2023/11/08 06:24:01;;;;;;;10.53;7.87;;;8.80;99.90;;;;;;5098984;27;20272;-49
2023/11/08 06:26:29;;;;;;;8.23;7.27;;;8.80;99.90;;;;;;5098550;28;20221;-45
2023/11/08 06:28:56;;;;;;;7.67;6.87;;;8.80;99.90;;;;;;5087248;28;20205;-48
2023/11/08 06:31:23;;;;;;;8.87;7.13;;;8.80;99.90;;;;;;5091872;28;20204;-47
2023/11/08 06:33:50;;;;;;;8.53;7.43;;;8.80;99.90;;;;;;5088984;28;20254;-45
2023/11/08 06:36:17;;;;;;;7.50;6.57;;;8.80;99.90;;;;;;5078940;28;20672;-47
2023/11/08 06:38:44;;;;;;;7.70;6.80;;;8.80;99.90;;;;;;5081459;28;20201;-44
2023/11/08 06:41:12;;;;;;;6.83;6.23;;;8.70;99.90;;;;;;5098272;28;20201;-44
2023/11/08 06:43:40;;;;;;;6.90;6.20;;;8.70;99.90;;;;;;5090322;28;20601;-47
2023/11/08 06:46:07;;;;;;;7.33;6.30;;;8.70;99.90;;;;;;5098064;27;20241;-46
2023/11/08 06:48:33;;;;;;;7.03;6.37;;;8.70;99.90;;;;;;5098587;28;20201;-48
2023/11/08 06:51:00;;;;;;;6.47;5.87;;;8.70;99.90;;;;;;5097450;28;20193;-48
2023/11/08 06:53:27;;;;;;;6.43;5.83;;;8.70;99.90;;;;;;5068914;28;20201;-48
2023/11/08 06:55:57;;;;;;;6.77;6.07;;;8.70;99.90;;;;;;5098748;28;20220;-48
2023/11/08 06:58:28;;;;;;;7.13;5.83;;;8.70;99.90;;;;;;5086517;28;20178;-48
2023/11/08 07:00:56;;;;;;;7.07;6.37;;;8.70;99.90;;;;;;5083763;28;20208;-43
2023/11/08 07:03:25;;;;;;;6.23;5.50;;;8.70;99.90;;;;;;5088541;28;20719;-43
2023/11/08 07:05:52;;;;;;;9.50;6.10;;;8.70;99.90;;;;;;5102350;28;20707;-46
2023/11/08 07:08:19;;;;;;;6.27;5.67;;;8.70;99.90;;;;;;5069539;27;20229;-48
2023/11/08 07:10:46;;;;;;;5.77;5.27;;;8.70;99.90;;;;;;5102370;28;20226;-47
2023/11/08 07:13:12;;;;;;;5.90;5.40;;;8.70;99.90;;;;;;5099929;28;20209;-48
2023/11/08 07:15:41;;;;;;;7.30;5.57;;;8.70;99.90;;;;;;5083171;28;20928;-43
2023/11/08 07:18:14;;;;;;;4.87;4.37;;;8.80;99.90;;;;;;5092104;28;20193;-49
2023/11/08 07:20:41;;;;;;;7.17;5.23;;;8.80;99.90;;;;;;5091264;28;20196;-46
2023/11/08 07:23:08;;;;;;;6.60;4.87;;;8.80;99.90;;;;;;5086146;28;20190;-50
2023/11/08 07:25:35;;;;;;;7.60;5.40;;;8.80;99.90;;;;;;5087857;28;20281;-45
2023/11/08 07:28:03;;;;;;;5.57;5.00;;;8.80;99.90;;;;;;5101659;28;20520;-50
2023/11/08 07:30:30;;;;;;;5.20;4.80;;;8.80;99.90;;;;;;5094299;28;20410;-44
2023/11/08 07:32:56;;;;;;;6.23;5.10;;;8.80;99.90;;;;;;5102756;28;20193;-47
2023/11/08 07:35:25;;;;;;;5.30;4.90;;;8.80;99.90;;;;;;5091103;28;21010;-44
2023/11/08 07:37:52;;;;;;;5.40;5.00;;;8.80;99.90;;;;;;5093398;28;20736;-47
2023/11/08 07:40:19;;;;;;;6.33;4.67;;;8.90;99.90;;;;;;5064064;28;20260;-45
2023/11/08 07:42:47;;;;;;;5.47;4.53;;;8.90;99.90;;;;;;5099568;28;20677;-43
2023/11/08 07:45:13;;;;;;;5.23;4.80;;;8.90;99.90;;;;;;5092507;28;20209;-46
2023/11/08 07:47:40;;;;;;;5.20;4.67;;;8.90;99.90;;;;;;5095624;28;20193;-43
2023/11/08 07:50:08;;;;;;;5.70;4.87;;;8.90;99.90;;;;;;5093804;28;20217;-44
2023/11/08 07:52:36;;;;;;;7.67;4.60;;;9.00;99.90;;;;;;5084364;28;20205;-47
2023/11/08 07:55:05;;;;;;;5.90;4.40;;;9.00;99.90;;;;;;5072276;28;20420;-44
2023/11/08 07:57:32;;;;;;;5.83;5.00;;;9.00;99.90;;;;;;5095065;28;20605;-45
2023/11/08 07:59:58;;;;;;;6.77;4.20;;;9.10;99.90;;;;;;5092926;27;20180;-44
2023/11/08 08:02:25;;;;;;;5.53;5.03;;;9.10;99.90;;;;;;5090786;28;20206;-47
2023/11/08 08:04:53;;;;;;;7.73;4.60;;;9.10;99.90;;;;;;5095129;28;20228;-44
2023/11/08 08:07:20;;;;;;;5.77;4.60;;;9.10;99.90;;;;;;5106841;27;20197;-44
2023/11/08 08:09:48;;;;;;;4.57;4.27;;;9.10;99.90;;;;;;5061338;28;20205;-45
2023/11/08 08:12:15;;;;;;;5.40;4.87;;;9.20;99.90;;;;;;5105968;28;20197;-45
2023/11/08 08:14:42;;;;;;;5.17;4.57;;;9.20;99.90;;;;;;5091488;27;20249;-44
2023/11/08 08:17:09;;;;;;;4.87;4.37;;;9.20;99.90;;;;;;5114780;27;20217;-49
2023/11/08 08:19:36;;;;;;;4.40;4.07;;;9.20;99.90;;;;;;5085390;28;20206;-46
2023/11/08 08:22:03;;;;;;;4.97;4.47;;;9.20;99.90;;;;;;5100671;27;20553;-48
2023/11/08 08:24:30;;;;;;;5.03;4.23;;;9.30;99.90;;;;;;5079875;27;20656;-47
2023/11/08 08:26:59;;;;;;;7.80;4.60;;;9.30;99.90;;;;;;5088821;27;20197;-47
2023/11/08 08:29:28;;;;;;;7.90;4.90;;;9.30;99.90;;;;;;5096832;27;20201;-47
2023/11/08 08:31:54;;;;;;;5.53;5.03;;;9.30;99.90;;;;;;5096640;27;20196;-48
2023/11/08 08:34:21;;;;;;;5.00;4.60;;;9.30;99.90;;;;;;5098167;28;20204;-48
2023/11/08 08:36:48;;;;;;;6.10;5.17;;;9.30;99.90;;;;;;5094402;28;20973;-46
2023/11/08 08:39:17;;;;;;;5.27;4.77;;;9.30;99.90;;;;;;5095906;28;20209;-45
2023/11/08 08:41:45;;;;;;;5.63;5.10;;;9.30;99.90;;;;;;5065933;27;20204;-45
2023/11/08 08:44:13;;;;;;;5.50;5.10;;;9.30;99.90;;;;;;5102102;27;20301;-46
2023/11/08 08:46:40;;;;;;;5.80;5.30;;;9.30;99.90;;;;;;5092699;28;20899;-47
2023/11/08 08:49:07;;;;;;;6.17;4.37;;;9.30;99.90;;;;;;5102015;27;20242;-45
2023/11/08 08:51:34;;;;;;;5.73;5.23;;;9.40;99.90;;;;;;5101048;27;20212;-50
2023/11/08 08:54:01;;;;;;;5.50;4.50;;;9.40;99.90;;;;;;5097192;28;20197;-44
2023/11/08 08:56:28;;;;;;;5.37;4.87;;;9.40;99.90;;;;;;5081322;28;20229;-45
2023/11/08 08:58:55;;;;;;;5.70;5.20;;;9.40;99.90;;;;;;5091711;28;20300;-49
2023/11/08 09:01:23;;;;;;;6.50;5.10;;;9.40;99.90;;;;;;5104890;27;20236;-47
2023/11/08 09:03:50;;;;;;;4.70;4.27;;;9.40;99.90;;;;;;5082521;27;20263;-44
2023/11/08 09:06:19;;;;;;;7.17;5.27;;;9.40;99.90;;;;;;5103065;28;20296;-43
2023/11/08 09:08:45;;;;;;;6.00;4.90;;;9.40;99.90;;;;;;5091554;28;20229;-49
2023/11/08 09:11:12;;;;;;;6.47;5.27;;;9.50;99.90;;;;;;5097007;27;20293;-44
2023/11/08 09:13:39;;;;;;;5.57;4.87;;;9.50;99.90;;;;;;5065326;27;20217;-46
2023/11/08 09:16:09;;;;;;;5.67;5.13;;;9.50;99.90;;;;;;5104553;27;20213;-44
2023/11/08 09:18:37;;;;;;;5.73;5.20;;;9.50;99.90;;;;;;5096659;27;20185;-48
2023/11/08 09:21:04;;;;;;;6.43;5.57;;;9.60;99.90;;;;;;5099707;27;20197;-44
2023/11/08 09:23:32;;;;;;;6.27;5.40;;;9.60;99.90;;;;;;5105126;27;20839;-46
2023/11/08 09:25:59;;;;;;;5.30;4.70;;;9.60;99.90;;;;;;5093872;27;20232;-46
2023/11/08 09:28:26;;;;;;;6.33;5.13;;;9.70;99.90;;;;;;5067464;27;20201;-48
2023/11/08 09:30:55;;;;;;;7.03;5.40;;;9.70;99.90;;;;;;5110552;27;20247;-46
2023/11/08 09:33:22;;;;;;;6.47;4.97;;;9.80;99.90;;;;;;5105857;27;20200;-46
2023/11/08 09:35:51;;;;;;;5.70;5.20;;;9.70;99.90;;;;;;5096989;27;20217;-46
2023/11/08 09:38:18;;;;;;;5.53;4.80;;;9.70;99.90;;;;;;5107399;27;20573;-47
2023/11/08 09:40:45;;;;;;;8.80;5.33;;;9.70;99.90;;;;;;5095608;27;20209;-44
2023/11/08 09:43:12;;;;;;;11.33;6.30;;;9.70;99.90;;;;;;5056556;28;20242;-44
2023/11/08 09:45:40;;;;;;;5.93;5.43;;;9.70;99.90;;;;;;5096371;27;20221;-49
2023/11/08 09:48:07;;;;;;;6.37;5.77;;;9.70;99.90;;;;;;5100958;27;20261;-48
2023/11/08 09:50:34;;;;;;;7.00;5.27;;;9.70;99.90;;;;;;5094221;27;20552;-45
2023/11/08 09:53:02;;;;;;;6.30;5.17;;;9.70;99.90;;;;;;5106173;27;20230;-47
2023/11/08 09:55:29;;;;;;;7.07;5.17;;;9.70;99.90;;;;;;5100621;28;20714;-49
2023/11/08 09:57:57;;;;;;;9.83;5.37;;;9.70;99.90;;;;;;5087516;27;20209;-44
2023/11/08 10:00:26;;;;;;;8.93;6.17;;;9.70;99.90;;;;;;5077746;27;20667;-47
2023/11/08 10:02:54;;;;;;;7.47;5.77;;;9.70;99.90;;;;;;5104329;27;20193;-52
2023/11/08 10:05:22;;;;;;;8.97;7.17;;;9.70;99.90;;;;;;5105041;27;20979;-51
2023/11/08 10:07:49;;;;;;;9.10;6.37;;;9.70;99.90;;;;;;5097974;27;20276;-46
2023/11/08 10:10:17;;;;;;;7.43;6.17;;;9.70;99.90;;;;;;5103530;27;20193;-44
2023/11/08 10:12:45;;;;;;;8.67;5.90;;;9.70;99.90;;;;;;5085352;27;20194;-46
2023/11/08 10:15:12;;;;;;;6.70;5.87;;;9.70;99.90;;;;;;5077753;27;20208;-46
2023/11/08 10:17:39;;;;;;;6.27;5.67;;;9.80;99.90;;;;;;5099443;27;20213;-47
2023/11/08 10:20:10;;;;;;;6.17;5.43;;;9.80;99.90;;;;;;5099823;27;20639;-44
2023/11/08 10:22:37;;;;;;;6.57;5.80;;;9.80;99.90;;;;;;5092173;28;20213;-46
2023/11/08 10:25:05;;;;;;;6.03;5.43;;;9.80;99.90;;;;;;5102335;27;20219;-45
2023/11/08 10:27:35;;;;;;;7.37;5.93;;;9.80;99.90;;;;;;5086985;27;20295;-45
2023/11/08 10:30:16;;;;;;;6.73;5.57;;;9.90;99.90;;;;;;5079067;28;20206;-49
2023/11/08 10:32:44;;;;;;;8.00;6.27;;;9.90;99.90;;;;;;5107187;27;20216;-44
2023/11/08 10:35:15;;;;;;;8.97;6.37;;;10.00;99.90;;;;;;5090196;27;20294;-47
2023/11/08 10:37:43;;;;;;;9.50;6.57;;;10.00;99.90;;;;;;5095369;27;20285;-46
2023/11/08 10:40:12;;;;;;;7.47;6.40;;;10.00;99.90;;;;;;5104387;27;20213;-47
2023/11/08 10:42:40;;;;;;;7.03;6.33;;;10.00;99.90;;;;;;5090411;27;20534;-50
2023/11/08 10:45:08;;;;;;;12.37;6.07;;;10.00;99.90;;;;;;5091993;28;20273;-46
2023/11/08 10:47:36;;;;;;;7.93;6.30;;;10.20;99.90;;;;;;5071442;28;20671;-46
2023/11/08 10:50:05;;;;;;;6.37;5.77;;;10.30;99.90;;;;;;5101121;27;20266;-48
2023/11/08 10:52:33;;;;;;;7.10;5.87;;;10.30;99.90;;;;;;5092682;27;20335;-48
2023/11/08 10:55:04;;;;;;;8.37;6.33;;;10.40;99.90;;;;;;5100775;27;20221;-46
2023/11/08 10:57:33;;;;;;;6.33;5.70;;;10.50;99.90;;;;;;5095715;27;20715;-48
2023/11/08 11:00:04;;;;;;;6.43;5.70;;;10.60;99.90;;;;;;5087445;27;20212;-51
2023/11/08 11:02:42;;;;;;;6.43;5.40;;;10.70;99.90;;;;;;5078556;27;20205;-48
2023/11/08 11:05:12;;;;;;;7.63;5.40;;;10.70;99.90;;;;;;5091866;28;20316;-51
2023/11/08 11:07:41;;;;;;;6.43;5.73;;;10.70;99.90;;;;;;5101503;27;20186;-51
2023/11/08 11:10:09;;;;;;;5.33;4.83;;;10.80;99.90;;;;;;5085892;28;20204;-49
2023/11/08 11:12:46;;;;;;;8.97;4.93;;;10.80;99.90;;;;;;5095099;28;20607;-47
2023/11/08 11:15:19;;;;;;;4.67;4.27;;;10.90;99.90;;;;;;5071254;28;20236;-47
2023/11/08 11:17:52;;;;;;;7.67;4.73;;;11.00;99.90;;;;;;5081246;27;20266;-50
2023/11/08 11:20:20;;;;;;;7.67;5.00;;;11.00;99.90;;;;;;5090617;27;20202;-47
2023/11/08 11:22:48;;;;;;;5.20;4.20;;;11.00;99.90;;;;;;5101204;28;20532;-48
2023/11/08 11:25:46;;;;;;;4.97;4.40;;;11.00;99.90;;;;;;5096645;27;20217;-48
2023/11/08 11:28:13;;;;;;;6.43;4.90;;;11.00;99.90;;;;;;5095867;28;20216;-44
2023/11/08 11:30:42;;;;;;;5.80;5.20;;;10.90;99.90;;;;;;5092898;28;20204;-46
2023/11/08 11:33:09;;;;;;;6.70;4.47;;;10.90;99.90;;;;;;5072189;28;22719;-47
2023/11/08 11:35:55;;;;;;;6.93;4.50;;;10.80;99.90;;;;;;5105248;28;20217;-45
2023/11/08 11:38:26;;;;;;;6.43;4.60;;;10.80;99.90;;;;;;5100272;28;20217;-48
2023/11/08 11:41:19;;;;;;;5.70;4.77;;;10.80;99.90;;;;;;5095380;28;20201;-45
2023/11/08 11:43:47;;;;;;;5.17;4.67;;;10.90;99.90;;;;;;5101263;27;20274;-47
2023/11/08 11:46:21;;;;;;;6.00;5.00;;;11.00;99.90;;;;;;5090631;27;20919;-45
2023/11/08 11:48:47;;;;;;;8.47;4.00;;;10.90;99.90;;;;;;5076575;27;20251;-48
2023/11/08 11:51:15;;;;;;;7.27;4.63;;;11.00;99.90;;;;;;5097056;27;20739;-46
2023/11/08 11:53:44;;;;;;;8.00;4.43;;;11.10;99.90;;;;;;5103352;27;20816;-47
2023/11/08 11:56:11;;;;;;;6.37;4.20;;;11.20;99.90;;;;;;5095833;27;20235;-44
2023/11/08 11:58:37;;;;;;;5.50;4.93;;;11.20;99.90;;;;;;5110093;27;20197;-46
2023/11/08 12:01:05;;;;;;;6.37;4.23;;;11.20;99.90;;;;;;5080898;28;21325;-50
2023/11/08 12:03:34;;;;;;;7.73;4.07;;;11.20;99.90;;;;;;5075907;28;20208;-43
2023/11/08 12:06:01;;;;;;;4.17;3.77;;;11.20;99.90;;;;;;5099184;27;20212;-45
2023/11/08 12:08:28;;;;;;;8.07;4.10;;;11.30;99.90;;;;;;5091688;27;20190;-51
2023/11/08 12:11:13;;;;;;;7.73;4.67;;;11.30;99.90;;;;;;5090804;27;20196;-44
2023/11/08 12:13:47;;;;;;;5.03;3.90;;;11.30;99.90;;;;;;5086758;28;20729;-51
2023/11/08 12:16:15;;;;;;;6.47;4.70;;;11.30;99.90;;;;;;5089934;28;20301;-44
2023/11/08 12:18:45;;;;;;;6.53;4.30;;;11.30;99.90;;;;;;5076186;27;20291;-53
2023/11/08 12:21:12;;;;;;;7.57;3.50;;;11.30;99.90;;;;;;5104080;27;20225;-47
2023/11/08 12:23:41;;;;;;;6.23;4.20;;;11.50;99.90;;;;;;5095356;27;20211;-51
2023/11/08 12:26:09;;;;;;;6.40;4.20;;;11.50;99.90;;;;;;5100480;27;20770;-45
2023/11/08 12:28:36;;;;;;;6.73;4.33;;;11.60;99.90;;;;;;5094174;27;20266;-48
2023/11/08 12:31:07;;;;;;;4.80;3.93;;;11.80;99.90;;;;;;5096452;27;20293;-48
2023/11/08 12:33:34;;;;;;;9.37;4.17;;;11.90;99.90;;;;;;5088242;28;20212;-52
2023/11/08 12:36:03;;;;;;;5.20;3.97;;;11.90;99.90;;;;;;5070371;27;20258;-46
2023/11/08 12:38:33;;;;;;;5.80;3.90;;;11.80;99.90;;;;;;5096067;27;20224;-53
2023/11/08 12:41:02;;;;;;;7.77;4.40;;;11.80;99.90;;;;;;5096372;28;20923;-50
2023/11/08 12:43:29;;;;;;;6.43;4.27;;;11.70;99.90;;;;;;5087881;28;20201;-51
2023/11/08 12:46:04;;;;;;;7.83;4.10;;;11.50;99.90;;;;;;5085019;28;20278;-51
2023/11/08 12:48:33;;;;;;;5.20;4.30;;;11.50;99.90;;;;;;5093490;27;20211;-52
2023/11/08 12:51:04;;;;;;;6.83;4.53;;;11.50;99.90;;;;;;5064341;28;20350;-51
2023/11/08 12:53:34;;;;;;;6.10;4.63;;;11.50;99.90;;;;;;5103667;27;20243;-47
2023/11/08 12:56:02;;;;;;;6.90;4.47;;;11.50;99.90;;;;;;5092243;28;20218;-43
2023/11/08 12:58:31;;;;;;;7.23;4.33;;;11.50;99.90;;;;;;5079945;27;20213;-48